createdAt,value
2022-08-21T00:00:21.964Z,1.48
2022-08-21T00:03:05.444Z,1.52
2022-08-21T00:05:34.888Z,1.20
2022-08-21T00:08:01.523Z,1.60
2022-08-21T00:10:28.377Z,1.75
2022-08-21T00:12:56.403Z,1.60
2022-08-21T00:15:28.992Z,1.85
2022-08-21T00:17:56.688Z,1.80
2022-08-21T00:20:25.334Z,1.77
2022-08-21T00:22:52.660Z,1.85
2022-08-21T00:25:20.978Z,1.73
2022-08-21T00:27:52.969Z,1.48
2022-08-21T00:30:23.227Z,1.40
2022-08-21T00:32:52.369Z,2.22
2022-08-21T00:35:21.736Z,1.80
2022-08-21T00:37:48.367Z,1.75
2022-08-21T00:40:17.947Z,1.65
2022-08-21T00:42:48.761Z,2.63
2022-08-21T00:45:22.174Z,1.80
2022-08-21T00:47:49.584Z,1.67
2022-08-21T00:50:21.738Z,1.67
2022-08-21T00:52:50.784Z,1.90
2022-08-21T00:55:18.216Z,1.92
2022-08-21T00:57:52.112Z,1.90
2022-08-21T01:00:24.994Z,1.50
2022-08-21T01:02:52.408Z,1.92
2022-08-21T01:05:19.067Z,1.63
2022-08-21T01:07:46.215Z,1.70
2022-08-21T01:10:21.618Z,1.85
2022-08-21T01:12:54.125Z,2.10
2022-08-21T01:15:22.761Z,1.40
2022-08-21T01:17:50.364Z,1.95
2022-08-21T01:20:17.578Z,2.03
2022-08-21T01:22:44.460Z,2.33
2022-08-21T01:25:13.737Z,1.98
2022-08-21T01:27:40.388Z,1.88
2022-08-21T01:30:12.644Z,1.95
2022-08-21T01:32:40.293Z,2.70
2022-08-21T01:35:09.125Z,1.65
2022-08-21T01:37:36.532Z,2.05
2022-08-21T01:40:05.391Z,1.98
2022-08-21T01:42:32.113Z,1.55
2022-08-21T01:44:59.161Z,1.88
2022-08-21T01:47:26.316Z,2.28
2022-08-21T01:49:53.861Z,1.98
2022-08-21T01:52:20.540Z,1.88
2022-08-21T01:54:47.275Z,2.03
2022-08-21T01:57:22.315Z,1.90
2022-08-21T01:59:53.384Z,1.85
2022-08-21T02:02:20.986Z,2.03
2022-08-21T02:04:47.817Z,2.17
2022-08-21T02:07:14.704Z,2.67
2022-08-21T02:09:43.158Z,2.20
2022-08-21T02:12:11.449Z,2.10
2022-08-21T02:14:38.563Z,2.22
2022-08-21T02:17:09.362Z,2.10
2022-08-21T02:19:40.353Z,2.08
2022-08-21T02:22:09.376Z,1.98
2022-08-21T02:24:50.586Z,2.15
2022-08-21T02:27:26.181Z,2.10
2022-08-21T02:29:56.308Z,1.75
2022-08-21T02:32:23.045Z,1.67
2022-08-21T02:34:50.065Z,2.08
2022-08-21T02:37:16.993Z,1.73
2022-08-21T02:39:43.842Z,2.33
2022-08-21T02:42:10.663Z,2.08
2022-08-21T02:44:37.276Z,1.83
2022-08-21T02:47:03.928Z,2.33
2022-08-21T02:49:30.612Z,2.58
2022-08-21T02:51:57.276Z,2.08
2022-08-21T02:54:24.045Z,2.20
2022-08-21T02:56:50.795Z,2.05
2022-08-21T02:59:19.140Z,2.00
2022-08-21T03:01:46.829Z,1.77
2022-08-21T03:04:13.478Z,3.00
2022-08-21T03:06:40.088Z,2.00
2022-08-21T03:09:06.905Z,2.20
2022-08-21T03:11:33.569Z,1.92
2022-08-21T03:14:00.567Z,1.83
2022-08-21T03:16:28.100Z,1.70
2022-08-21T03:18:57.103Z,2.00
2022-08-21T03:21:23.882Z,1.52
2022-08-21T03:23:50.488Z,1.90
2022-08-21T03:26:17.260Z,2.25
2022-08-21T03:28:46.499Z,2.50
2022-08-21T03:31:13.149Z,2.33
2022-08-21T03:33:40.280Z,2.67
2022-08-21T03:36:08.837Z,2.30
2022-08-21T03:38:36.640Z,2.33
2022-08-21T03:41:04.969Z,1.80
2022-08-21T03:43:32.727Z,1.83
2022-08-21T03:46:01.937Z,2.33
2022-08-21T03:48:29.095Z,2.17
2022-08-21T03:50:56.273Z,1.55
2022-08-21T03:53:23.924Z,1.85
2022-08-21T03:55:53.662Z,2.28
2022-08-21T03:58:23.928Z,1.70
2022-08-21T04:00:55.146Z,1.70
2022-08-21T04:03:23.135Z,3.25
2022-08-21T04:05:49.761Z,2.03
2022-08-21T04:08:19.620Z,1.90
2022-08-21T04:10:49.869Z,1.98
2022-08-21T04:13:16.889Z,2.25
2022-08-21T04:15:43.826Z,2.35
2022-08-21T04:18:10.912Z,1.90
2022-08-21T04:20:37.932Z,2.45
2022-08-21T04:23:04.823Z,1.90
2022-08-21T04:25:31.453Z,1.83
2022-08-21T04:27:58.299Z,2.20
2022-08-21T04:30:28.156Z,2.08
2022-08-21T04:32:57.057Z,1.90
2022-08-21T04:35:25.957Z,2.10
2022-08-21T04:37:52.694Z,3.33
2022-08-21T04:40:21.594Z,2.08
2022-08-21T04:42:51.187Z,2.67
2022-08-21T04:45:24.254Z,2.55
2022-08-21T04:47:53.627Z,2.20
2022-08-21T04:50:23.463Z,2.33
2022-08-21T04:52:50.175Z,1.80
2022-08-21T04:55:19.594Z,2.13
2022-08-21T04:57:48.732Z,1.70
2022-08-21T05:00:19.729Z,1.98
2022-08-21T05:02:51.205Z,2.22
2022-08-21T05:05:18.035Z,1.88
2022-08-21T05:07:46.376Z,2.28
2022-08-21T05:10:15.008Z,2.05
2022-08-21T05:12:43.674Z,3.00
2022-08-21T05:15:13.495Z,2.33
2022-08-21T05:17:42.046Z,1.80
2022-08-21T05:20:10.619Z,2.42
2022-08-21T05:22:37.540Z,1.98
2022-08-21T05:25:09.686Z,1.75
2022-08-21T05:27:37.873Z,2.50
2022-08-21T05:30:08.726Z,2.08
2022-08-21T05:32:36.550Z,2.35
2022-08-21T05:35:08.014Z,2.17
2022-08-21T05:37:35.433Z,1.95
2022-08-21T05:40:21.323Z,1.90
2022-08-21T05:42:54.924Z,2.88
2022-08-21T05:45:43.316Z,3.13
2022-08-21T05:48:24.920Z,2.65
2022-08-21T05:50:53.512Z,2.15
2022-08-21T05:53:22.565Z,2.00
2022-08-21T05:55:49.507Z,2.40
2022-08-21T05:58:19.222Z,2.30
2022-08-21T06:00:49.031Z,2.80
2022-08-21T06:03:20.499Z,2.65
2022-08-21T06:05:47.762Z,2.50
2022-08-21T06:08:16.756Z,2.67
2022-08-21T06:10:43.960Z,2.47
2022-08-21T06:13:11.367Z,2.40
2022-08-21T06:15:38.044Z,1.75
2022-08-21T06:18:05.383Z,2.20
2022-08-21T06:20:33.093Z,1.95
2022-08-21T06:23:00.025Z,1.85
2022-08-21T06:25:27.004Z,3.13
2022-08-21T06:27:53.646Z,1.67
2022-08-21T06:30:20.745Z,2.20
2022-08-21T06:32:47.359Z,2.03
2022-08-21T06:35:14.012Z,2.30
2022-08-21T06:37:40.739Z,2.00
2022-08-21T06:40:12.467Z,2.10
2022-08-21T06:42:41.343Z,2.00
2022-08-21T06:45:08.552Z,2.38
2022-08-21T06:47:35.400Z,2.00
2022-08-21T06:50:02.156Z,1.70
2022-08-21T06:52:28.828Z,2.30
2022-08-21T06:54:55.432Z,2.55
2022-08-21T06:57:22.953Z,2.15
2022-08-21T06:59:51.317Z,2.22
2022-08-21T07:02:18.931Z,1.85
2022-08-21T07:04:45.643Z,2.05
2022-08-21T07:07:12.314Z,2.00
2022-08-21T07:09:39.026Z,1.60
2022-08-21T07:12:05.864Z,1.95
2022-08-21T07:14:33.020Z,2.05
2022-08-21T07:16:59.715Z,2.72
2022-08-21T07:19:26.433Z,2.25
2022-08-21T07:21:58.686Z,2.17
2022-08-21T07:24:25.313Z,2.13
2022-08-21T07:26:52.375Z,2.45
2022-08-21T07:29:19.666Z,2.22
2022-08-21T07:31:46.607Z,1.75
2022-08-21T07:34:13.899Z,1.83
2022-08-21T07:36:40.587Z,1.58
2022-08-21T07:39:07.277Z,1.58
2022-08-21T07:41:35.736Z,1.63
2022-08-21T07:44:02.831Z,1.65
2022-08-21T07:46:30.252Z,1.88
2022-08-21T07:48:56.916Z,1.63
2022-08-21T07:51:27.984Z,1.63
2022-08-21T07:53:56.829Z,1.65
2022-08-21T07:56:23.640Z,1.73
2022-08-21T07:58:50.340Z,1.30
2022-08-21T08:01:17.973Z,1.67
2022-08-21T08:03:46.201Z,2.40
2022-08-21T08:06:17.643Z,1.40
2022-08-21T08:08:44.307Z,1.02
2022-08-21T08:11:11.989Z,1.75
2022-08-21T08:13:47.956Z,1.30
2022-08-21T08:16:16.245Z,1.25
2022-08-21T08:18:43.327Z,0.98
2022-08-21T08:21:11.509Z,0.90
2022-08-21T08:23:38.341Z,1.13
2022-08-21T08:26:05.211Z,1.08
2022-08-21T08:28:32.886Z,1.05
2022-08-21T08:31:00.958Z,1.15
2022-08-21T08:33:27.811Z,1.13
2022-08-21T08:35:54.562Z,1.50
2022-08-21T08:38:24.475Z,1.00
2022-08-21T08:40:54.270Z,2.35
2022-08-21T08:43:21.228Z,2.80
2022-08-21T08:45:53.244Z,1.50
2022-08-21T08:48:40.576Z,1.42
2022-08-21T08:51:14.369Z,0.95
2022-08-21T08:54:04.004Z,1.23
2022-08-21T08:56:34.668Z,1.45
2022-08-21T08:59:09.648Z,1.20
2022-08-21T09:01:39.171Z,0.98
2022-08-21T09:04:06.932Z,1.90
2022-08-21T09:06:42.617Z,1.58
2022-08-21T09:09:54.546Z,1.23
2022-08-21T09:12:46.217Z,1.85
2022-08-21T09:15:19.421Z,1.23
2022-08-21T09:18:10.818Z,1.33
2022-08-21T09:20:58.708Z,1.00
2022-08-21T09:23:34.333Z,0.90
2022-08-21T09:26:17.987Z,1.10
2022-08-21T09:28:47.379Z,1.60
2022-08-21T09:31:30.074Z,1.10
2022-08-21T09:34:09.297Z,1.33
2022-08-21T09:36:43.200Z,1.30
2022-08-21T09:39:11.560Z,0.93
2022-08-21T09:41:39.677Z,1.00
2022-08-21T09:44:09.001Z,1.58
2022-08-21T09:46:36.760Z,1.08
2022-08-21T09:49:04.760Z,0.60
2022-08-21T09:51:37.281Z,1.00
2022-08-21T09:54:06.618Z,0.80
2022-08-21T09:57:18.120Z,0.80
2022-08-21T09:59:46.592Z,0.75
2022-08-21T10:02:24.324Z,1.42
2022-08-21T10:04:59.086Z,0.90
2022-08-21T10:07:28.915Z,0.63
2022-08-21T10:10:06.348Z,1.08
2022-08-21T10:13:00.661Z,0.90
2022-08-21T10:15:36.311Z,1.17
2022-08-21T10:18:32.633Z,1.20
2022-08-21T10:20:59.296Z,1.05
2022-08-21T10:23:41.165Z,0.90
2022-08-21T10:26:47.726Z,0.95
2022-08-21T10:29:53.548Z,0.90
2022-08-21T10:32:29.143Z,0.68
2022-08-21T10:35:21.916Z,0.90
2022-08-21T10:38:48.821Z,1.00
2022-08-21T10:41:19.712Z,0.80
2022-08-21T10:44:17.457Z,1.05
2022-08-21T10:47:06.091Z,0.60
2022-08-21T10:50:02.885Z,0.88
2022-08-21T10:52:52.533Z,0.77
2022-08-21T10:55:47.704Z,0.75
2022-08-21T10:58:22.200Z,0.60
2022-08-21T11:01:03.463Z,0.77
2022-08-21T11:03:47.921Z,0.68
2022-08-21T11:06:20.205Z,1.48
2022-08-21T11:08:53.395Z,0.93
2022-08-21T11:11:29.775Z,0.77
2022-08-21T11:14:12.429Z,0.80
2022-08-21T11:16:47.553Z,0.60
2022-08-21T11:19:36.085Z,0.88
2022-08-21T11:22:36.236Z,0.82
2022-08-21T11:25:39.127Z,0.70
2022-08-21T11:28:48.961Z,0.50
2022-08-21T11:31:33.489Z,0.80
2022-08-21T11:34:24.491Z,0.88
2022-08-21T11:37:21.121Z,1.35
2022-08-21T11:40:02.981Z,0.90
2022-08-21T11:42:51.419Z,1.00
2022-08-21T11:45:31.994Z,0.95
2022-08-21T11:48:44.844Z,0.90
2022-08-21T11:51:17.804Z,0.65
2022-08-21T11:54:02.243Z,0.70
2022-08-21T11:56:46.259Z,0.93
2022-08-21T11:59:22.470Z,0.68
2022-08-21T12:01:51.845Z,1.52
2022-08-21T12:04:32.556Z,1.25
2022-08-21T12:07:14.769Z,0.50
2022-08-21T12:09:41.524Z,1.08
2022-08-21T12:12:23.764Z,0.80
2022-08-21T12:14:52.935Z,0.90
2022-08-21T12:17:23.144Z,0.50
2022-08-21T12:20:27.384Z,2.05
2022-08-21T12:23:15.647Z,0.70
2022-08-21T12:26:00.969Z,0.68
2022-08-21T12:28:29.527Z,1.00
2022-08-21T12:30:58.079Z,0.80
2022-08-21T12:33:37.241Z,0.55
2022-08-21T12:36:27.015Z,0.77
2022-08-21T12:38:57.127Z,0.80
2022-08-21T12:41:27.233Z,0.60
2022-08-21T12:44:15.820Z,0.70
2022-08-21T12:47:13.624Z,0.88
2022-08-21T12:49:57.264Z,0.77
2022-08-21T12:52:48.513Z,0.80
2022-08-21T12:55:25.954Z,0.77
2022-08-21T12:57:52.738Z,1.10
2022-08-21T13:00:24.696Z,0.65
2022-08-21T13:02:54.051Z,0.80
2022-08-21T13:05:35.639Z,0.98
2022-08-21T13:08:07.767Z,0.52
2022-08-21T13:10:35.975Z,0.55
2022-08-21T13:13:28.457Z,0.70
2022-08-21T13:16:02.648Z,1.00
2022-08-21T13:18:32.937Z,1.17
2022-08-21T13:21:15.024Z,0.73
2022-08-21T13:23:42.216Z,0.60
2022-08-21T13:26:22.200Z,0.90
2022-08-21T13:28:50.575Z,0.68
2022-08-21T13:31:27.884Z,0.60
2022-08-21T13:33:55.695Z,0.73
2022-08-21T13:36:33.181Z,1.00
2022-08-21T13:39:00.351Z,0.80
2022-08-21T13:41:31.864Z,1.10
2022-08-21T13:44:18.333Z,1.13
2022-08-21T13:46:49.017Z,0.82
2022-08-21T13:49:20.176Z,0.88
2022-08-21T13:51:47.905Z,1.02
2022-08-21T13:54:27.061Z,0.75
2022-08-21T13:56:54.532Z,1.00
2022-08-21T13:59:35.552Z,1.00
2022-08-21T14:02:19.801Z,0.70
2022-08-21T14:04:57.619Z,0.80
2022-08-21T14:07:36.574Z,0.88
2022-08-21T14:10:14.454Z,0.95
2022-08-21T14:12:55.625Z,0.80
2022-08-21T14:15:29.645Z,0.90
2022-08-21T14:18:08.689Z,0.80
2022-08-21T14:20:37.247Z,0.90
2022-08-21T14:23:04.236Z,1.13
2022-08-21T14:25:43.974Z,0.80
2022-08-21T14:28:18.955Z,1.00
2022-08-21T14:30:46.339Z,0.90
2022-08-21T14:33:27.372Z,0.75
2022-08-21T14:35:54.563Z,0.70
2022-08-21T14:38:25.757Z,1.38
2022-08-21T14:40:58.375Z,0.90
2022-08-21T14:43:27.646Z,1.15
2022-08-21T14:45:54.962Z,1.00
2022-08-21T14:48:21.694Z,1.10
2022-08-21T14:50:48.508Z,0.85
2022-08-21T14:53:15.099Z,0.60
2022-08-21T14:56:00.657Z,0.82
2022-08-21T14:58:27.360Z,0.80
2022-08-21T15:00:57.398Z,0.90
2022-08-21T15:03:24.645Z,1.00
2022-08-21T15:05:52.731Z,0.70
2022-08-21T15:08:19.535Z,1.02
2022-08-21T15:11:08.589Z,0.88
2022-08-21T15:13:34.256Z,1.13
2022-08-21T15:16:00.905Z,0.70
2022-08-21T15:18:29.953Z,1.38
2022-08-21T15:20:56.768Z,0.90
2022-08-21T15:23:23.880Z,1.25
2022-08-21T15:25:51.151Z,0.95
2022-08-21T15:28:18.679Z,1.05
2022-08-21T15:30:46.431Z,1.00
2022-08-21T15:33:13.465Z,0.90
2022-08-21T15:35:41.073Z,0.93
2022-08-21T15:38:11.185Z,0.88
2022-08-21T15:40:39.618Z,0.90
2022-08-21T15:43:31.016Z,1.65
2022-08-21T15:46:00.877Z,1.08
2022-08-21T15:48:27.980Z,1.08
2022-08-21T15:50:54.646Z,1.00
2022-08-21T15:53:21.255Z,0.90
2022-08-21T15:55:47.991Z,1.48
2022-08-21T15:58:20.877Z,1.42
2022-08-21T16:00:48.671Z,1.02
2022-08-21T16:03:20.798Z,0.90
2022-08-21T16:05:49.674Z,1.60
2022-08-21T16:08:16.902Z,1.30
2022-08-21T16:10:43.674Z,1.27
2022-08-21T16:13:26.983Z,1.80
2022-08-21T16:15:54.817Z,1.00
2022-08-21T16:18:23.396Z,1.95
2022-08-21T16:20:50.523Z,1.17
2022-08-21T16:23:17.313Z,1.30
2022-08-21T16:25:44.761Z,1.35
2022-08-21T16:28:15.523Z,1.23
2022-08-21T16:30:44.761Z,1.42
2022-08-21T16:33:25.701Z,1.58
2022-08-21T16:35:52.696Z,1.30
2022-08-21T16:38:20.005Z,1.20
2022-08-21T16:40:46.930Z,1.27
2022-08-21T16:43:13.943Z,1.33
2022-08-21T16:45:43.584Z,1.17
2022-08-21T16:48:10.996Z,1.27
2022-08-21T16:50:38.025Z,1.10
2022-08-21T16:53:04.897Z,0.80
2022-08-21T16:55:31.565Z,1.10
2022-08-21T16:57:58.256Z,1.50
2022-08-21T17:00:25.855Z,1.30
2022-08-21T17:02:56.161Z,1.25
2022-08-21T17:05:22.919Z,1.30
2022-08-21T17:07:49.627Z,1.55
2022-08-21T17:10:19.189Z,1.52
2022-08-21T17:12:55.930Z,1.30
2022-08-21T17:15:26.522Z,1.52
2022-08-21T17:17:53.849Z,1.67
2022-08-21T17:20:20.936Z,1.95
2022-08-21T17:22:47.692Z,1.38
2022-08-21T17:25:14.620Z,1.30
2022-08-21T17:27:43.947Z,1.38
2022-08-21T17:30:12.552Z,2.13
2022-08-21T17:32:39.720Z,1.35
2022-08-21T17:35:07.204Z,1.80
2022-08-21T17:37:34.041Z,1.38
2022-08-21T17:40:00.770Z,1.70
2022-08-21T17:42:27.496Z,1.50
2022-08-21T17:44:56.491Z,1.35
2022-08-21T17:47:23.793Z,1.40
2022-08-21T17:49:50.552Z,1.27
2022-08-21T17:52:17.275Z,1.80
2022-08-21T17:54:43.935Z,1.90
2022-08-21T17:57:23.084Z,1.30
2022-08-21T17:59:52.346Z,1.83
2022-08-21T18:02:24.064Z,1.52
2022-08-21T18:04:50.942Z,1.70
2022-08-21T18:07:32.349Z,2.15
2022-08-21T18:10:01.584Z,1.67
2022-08-21T18:12:29.748Z,1.30
2022-08-21T18:14:57.069Z,1.73
2022-08-21T18:17:24.518Z,2.08
2022-08-21T18:19:51.261Z,1.60
2022-08-21T18:22:17.916Z,1.20
2022-08-21T18:24:44.655Z,2.15
2022-08-21T18:27:13.521Z,1.35
2022-08-21T18:29:47.219Z,2.03
2022-08-21T18:35:01.846Z,1.10
2022-08-21T18:37:29.465Z,1.70
2022-08-21T18:39:56.418Z,1.48
2022-08-21T18:42:29.166Z,1.45
2022-08-21T18:45:00.937Z,1.42
2022-08-21T18:47:37.314Z,1.60
2022-08-21T18:50:10.698Z,2.25
2022-08-21T18:52:38.862Z,1.83
2022-08-21T18:57:58.912Z,1.30
2022-08-21T19:00:35.696Z,1.55
2022-08-21T19:03:06.150Z,1.60
2022-08-21T19:05:36.528Z,1.45
2022-08-21T19:08:03.458Z,1.33
2022-08-21T19:13:20.724Z,1.25
2022-08-21T19:15:52.652Z,1.58
2022-08-21T19:18:27.878Z,1.30
2022-08-21T19:20:55.543Z,1.55
2022-08-21T19:23:29.297Z,1.58
2022-08-21T19:26:00.674Z,1.70
2022-08-21T19:28:36.318Z,1.48
2022-08-21T19:31:06.387Z,1.50
2022-08-21T19:33:41.244Z,1.83
2022-08-21T19:36:11.831Z,1.67
2022-08-21T19:38:39.763Z,2.13
2022-08-21T19:41:09.465Z,1.77
2022-08-21T19:43:42.216Z,2.00
2022-08-21T19:46:09.322Z,1.98
2022-08-21T19:48:37.212Z,1.55
2022-08-21T19:51:05.288Z,1.67
2022-08-21T19:53:31.955Z,1.48
2022-08-21T19:55:58.810Z,1.42
2022-08-21T19:58:41.883Z,1.58
2022-08-21T20:01:16.491Z,1.77
2022-08-21T20:03:44.978Z,2.00
2022-08-21T20:06:31.773Z,1.80
2022-08-21T20:08:58.523Z,1.75
2022-08-21T20:14:19.967Z,1.50
2022-08-21T20:16:48.523Z,1.48
2022-08-21T20:19:20.212Z,1.92
2022-08-21T20:21:46.961Z,1.48
2022-08-21T20:24:14.647Z,2.20
2022-08-21T20:26:48.639Z,1.67
2022-08-21T20:29:17.509Z,1.60
2022-08-21T20:31:52.948Z,1.25
2022-08-21T20:34:19.916Z,1.80
2022-08-21T20:36:47.503Z,1.40
2022-08-21T20:39:14.794Z,1.70
2022-08-21T20:41:42.593Z,2.05
2022-08-21T20:44:12.673Z,1.42
2022-08-21T20:46:39.475Z,2.13
2022-08-21T20:49:09.319Z,1.58
2022-08-21T20:51:41.499Z,1.88
2022-08-21T20:54:25.905Z,1.40
2022-08-21T20:57:13.632Z,1.50
2022-08-21T20:59:52.404Z,1.38
2022-08-21T21:02:41.582Z,1.85
2022-08-21T21:05:15.397Z,1.70
2022-08-21T21:08:20.261Z,1.60
2022-08-21T21:10:54.466Z,1.80
2022-08-21T21:13:39.019Z,1.75
2022-08-21T21:16:15.448Z,2.33
2022-08-21T21:19:05.288Z,1.80
2022-08-21T21:21:34.900Z,1.70
2022-08-21T21:24:02.015Z,2.65
2022-08-21T21:26:48.691Z,1.60
2022-08-21T21:29:22.896Z,1.85
2022-08-21T21:31:53.910Z,2.00
2022-08-21T21:34:23.157Z,1.92
2022-08-21T21:40:28.215Z,2.10
2022-08-21T21:43:24.249Z,1.55
2022-08-21T21:46:09.944Z,2.13
2022-08-21T21:48:59.248Z,2.00
2022-08-21T21:51:51.617Z,2.38
2022-08-21T21:54:38.524Z,1.95
2022-08-21T21:57:40.816Z,2.45
2022-08-21T22:00:19.160Z,1.88
2022-08-21T22:03:02.209Z,1.55
2022-08-21T22:05:49.592Z,2.08
2022-08-21T22:09:01.376Z,2.20
2022-08-21T22:11:56.204Z,1.50
2022-08-21T22:14:34.650Z,1.70
2022-08-21T22:17:09.692Z,2.10
2022-08-21T22:19:40.777Z,2.60
2022-08-21T22:22:21.248Z,1.50
2022-08-21T22:24:53.232Z,1.48
2022-08-21T22:27:29.224Z,1.60
2022-08-21T22:30:01.797Z,1.63
2022-08-21T22:32:52.425Z,1.77
2022-08-21T22:35:25.045Z,1.60
2022-08-21T22:37:55.347Z,2.25
2022-08-21T22:40:28.652Z,2.72
2022-08-21T22:43:01.697Z,2.25
2022-08-21T22:45:31.708Z,2.95
2022-08-21T22:48:05.940Z,2.08
2022-08-21T22:50:39.417Z,2.03
2022-08-21T22:53:09.174Z,1.98
2022-08-21T22:55:38.763Z,1.63
2022-08-21T22:58:18.831Z,1.45
2022-08-21T23:01:04.179Z,1.77
2022-08-21T23:03:44.092Z,1.40
2022-08-21T23:06:22.909Z,1.40
2022-08-21T23:08:52.975Z,1.88
2022-08-21T23:11:25.580Z,1.40
2022-08-21T23:13:55.744Z,1.58
2022-08-21T23:19:46.356Z,1.48
2022-08-21T23:22:36.099Z,1.83
2022-08-21T23:25:24.760Z,1.85
2022-08-21T23:28:15.817Z,1.23
2022-08-21T23:30:49.127Z,1.35
2022-08-21T23:33:44.992Z,1.67
2022-08-21T23:37:02.949Z,1.10
2022-08-21T23:39:57.448Z,1.42
2022-08-21T23:42:35.797Z,1.58
2022-08-21T23:45:13.976Z,1.80
2022-08-21T23:47:51.026Z,1.50
2022-08-21T23:50:32.512Z,1.70
2022-08-21T23:53:23.176Z,1.70
2022-08-21T23:55:55.675Z,2.08
2022-08-21T23:58:22.314Z,1.70
